createdAt,value
2019-05-07T00:02:22.581Z,36.10
2019-05-07T00:04:53.195Z,35.68
2019-05-07T00:07:23.689Z,37.35
2019-05-07T00:09:54.061Z,36.93
2019-05-07T00:12:24.540Z,37.53
2019-05-07T00:15:01.291Z,36.25
2019-05-07T00:17:27.340Z,35.80
2019-05-07T00:19:57.792Z,36.53
2019-05-07T00:22:29.016Z,35.13
2019-05-07T00:24:59.416Z,35.98
2019-05-07T00:27:31.917Z,35.43
2019-05-07T00:30:02.931Z,35.43
2019-05-07T00:32:35.115Z,36.80
2019-05-07T00:35:07.329Z,36.40
2019-05-07T00:37:48.806Z,36.28
2019-05-07T00:40:38.066Z,35.45
2019-05-07T00:43:22.708Z,37.78
2019-05-07T00:45:56.925Z,36.93
2019-05-07T00:48:27.559Z,36.88
2019-05-07T00:51:16.833Z,35.65
2019-05-07T00:53:47.163Z,34.67
2019-05-07T00:56:17.436Z,34.43
2019-05-07T00:58:48.864Z,34.53
2019-05-07T01:01:19.348Z,33.63
2019-05-07T01:03:49.734Z,32.67
2019-05-07T01:06:22.301Z,34.15
2019-05-07T01:08:52.625Z,33.13
2019-05-07T01:11:23.257Z,33.63
2019-05-07T01:13:53.720Z,34.60
2019-05-07T01:16:24.260Z,32.60
2019-05-07T01:18:54.640Z,34.33
2019-05-07T01:21:25.096Z,32.55
2019-05-07T01:23:55.506Z,31.42
2019-05-07T01:26:26.075Z,32.55
2019-05-07T01:28:59.642Z,31.75
2019-05-07T01:31:36.991Z,31.17
2019-05-07T01:34:25.157Z,32.13
2019-05-07T01:36:55.617Z,30.55
2019-05-07T01:39:26.000Z,30.97
2019-05-07T01:41:57.079Z,31.30
2019-05-07T01:44:27.362Z,29.95
2019-05-07T01:46:57.837Z,29.87
2019-05-07T01:49:28.104Z,30.30
2019-05-07T01:51:58.433Z,29.70
2019-05-07T01:54:28.812Z,28.77
2019-05-07T01:56:59.177Z,29.37
2019-05-07T01:59:29.557Z,30.00
2019-05-07T02:02:03.454Z,29.18
2019-05-07T02:04:42.729Z,28.77
2019-05-07T02:07:25.322Z,27.80
2019-05-07T02:10:02.918Z,28.55
2019-05-07T02:12:34.864Z,27.25
2019-05-07T02:15:06.097Z,27.05
2019-05-07T02:17:38.420Z,26.35
2019-05-07T02:20:08.720Z,25.82
2019-05-07T02:22:39.103Z,27.17
2019-05-07T02:25:09.589Z,25.72
2019-05-07T02:27:41.992Z,25.25
2019-05-07T02:30:14.835Z,24.60
2019-05-07T02:32:44.144Z,24.90
2019-05-07T02:35:14.604Z,24.20
2019-05-07T02:38:03.888Z,26.07
2019-05-07T02:40:43.125Z,24.47
2019-05-07T02:43:13.979Z,24.37
2019-05-07T02:46:17.319Z,24.05
2019-05-07T02:48:35.836Z,22.70
2019-05-07T02:51:13.193Z,23.02
2019-05-07T02:53:54.297Z,22.02
2019-05-07T02:56:24.773Z,21.95
2019-05-07T02:58:55.058Z,21.87
2019-05-07T03:01:25.509Z,21.93
2019-05-07T03:03:56.062Z,24.12
2019-05-07T03:06:26.437Z,32.90
2019-05-07T03:08:56.721Z,41.13
2019-05-07T03:11:26.971Z,48.70
2019-05-07T03:13:57.394Z,40.73
2019-05-07T03:16:41.506Z,41.35
2019-05-07T03:18:59.831Z,46.55
2019-05-07T03:21:49.056Z,43.75
2019-05-07T03:24:53.162Z,43.58
2019-05-07T03:27:25.973Z,41.40
2019-05-07T03:30:17.123Z,41.20
2019-05-07T03:32:56.475Z,40.70
2019-05-07T03:35:38.117Z,38.73
2019-05-07T03:38:08.726Z,38.65
2019-05-07T03:40:39.018Z,37.73
2019-05-07T03:43:13.467Z,37.95
2019-05-07T03:45:54.035Z,37.10
2019-05-07T03:48:24.741Z,35.95
2019-05-07T03:50:55.327Z,35.83
2019-05-07T03:53:25.593Z,35.45
2019-05-07T03:55:56.790Z,35.85
2019-05-07T03:58:27.113Z,35.83
2019-05-07T04:00:57.407Z,33.90
2019-05-07T04:03:27.769Z,34.25
2019-05-07T04:05:58.192Z,34.43
2019-05-07T04:08:28.566Z,33.42
2019-05-07T04:11:03.628Z,32.98
2019-05-07T04:13:33.724Z,32.60
2019-05-07T04:16:04.622Z,31.90
2019-05-07T04:18:35.265Z,31.40
2019-05-07T04:21:05.746Z,31.52
2019-05-07T04:23:36.708Z,29.77
2019-05-07T04:26:22.906Z,30.00
2019-05-07T04:29:06.650Z,30.10
2019-05-07T04:31:43.523Z,29.35
2019-05-07T04:34:23.833Z,29.67
2019-05-07T04:36:53.492Z,28.70
2019-05-07T04:39:23.835Z,28.00
2019-05-07T04:41:54.279Z,27.70
2019-05-07T04:44:24.643Z,27.07
2019-05-07T04:46:55.328Z,27.48
2019-05-07T04:49:25.636Z,27.42
2019-05-07T04:52:04.310Z,26.25
2019-05-07T04:54:34.727Z,26.05
2019-05-07T04:57:08.779Z,26.48
2019-05-07T04:59:39.244Z,26.15
2019-05-07T05:02:15.766Z,25.50
2019-05-07T05:04:46.288Z,25.05
2019-05-07T05:07:16.757Z,25.77
2019-05-07T05:09:47.212Z,23.52
2019-05-07T05:12:17.741Z,22.80
2019-05-07T05:14:48.581Z,25.50
2019-05-07T05:17:18.861Z,25.88
2019-05-07T05:19:49.320Z,28.23
2019-05-07T05:22:44.383Z,22.30
2019-05-07T05:25:18.730Z,22.77
2019-05-07T05:27:49.269Z,23.52
2019-05-07T05:30:25.992Z,27.70
2019-05-07T05:32:57.321Z,29.77
2019-05-07T05:35:27.948Z,29.92
2019-05-07T05:37:58.816Z,32.95
2019-05-07T05:40:29.397Z,35.90
2019-05-07T05:43:08.624Z,35.52
2019-05-07T05:45:42.614Z,42.40
2019-05-07T05:48:13.598Z,38.30
2019-05-07T05:50:59.264Z,43.10
2019-05-07T05:53:34.626Z,39.08
2019-05-07T05:56:11.464Z,41.65
2019-05-07T05:58:52.717Z,37.20
2019-05-07T06:01:44.632Z,43.40
2019-05-07T06:04:32.718Z,41.70
2019-05-07T06:07:12.259Z,45.58
2019-05-07T06:10:19.047Z,44.27
2019-05-07T06:12:57.476Z,49.93
2019-05-07T06:15:52.198Z,44.38
2019-05-07T06:18:41.902Z,44.65
2019-05-07T06:21:36.812Z,53.35
2019-05-07T06:24:08.895Z,52.43
2019-05-07T06:26:39.105Z,56.23
2019-05-07T06:29:09.297Z,53.55
2019-05-07T06:31:39.529Z,55.95
2019-05-07T06:34:09.777Z,50.63
2019-05-07T06:36:42.401Z,49.23
2019-05-07T06:39:18.732Z,46.42
2019-05-07T06:42:06.483Z,48.23
2019-05-07T06:44:36.661Z,48.58
2019-05-07T06:47:06.848Z,51.53
2019-05-07T06:49:37.140Z,51.65
2019-05-07T06:52:07.610Z,49.27
2019-05-07T06:54:37.840Z,49.40
2019-05-07T06:57:08.057Z,48.83
2019-05-07T06:59:46.214Z,47.78
2019-05-07T07:02:42.548Z,48.85
2019-05-07T07:05:30.228Z,47.88
2019-05-07T07:08:05.377Z,47.83
2019-05-07T07:10:53.549Z,48.30
2019-05-07T07:13:24.747Z,48.08
2019-05-07T07:15:54.998Z,47.73
2019-05-07T07:18:26.231Z,47.60
2019-05-07T07:20:56.681Z,47.53
2019-05-07T07:23:26.974Z,47.80
2019-05-07T07:25:57.193Z,47.73
2019-05-07T07:28:29.757Z,49.20
2019-05-07T07:31:06.669Z,49.18
2019-05-07T07:33:43.562Z,49.98
2019-05-07T07:36:13.575Z,48.83
2019-05-07T07:38:44.700Z,49.73
2019-05-07T07:41:36.796Z,48.85
2019-05-07T07:44:06.971Z,50.40
2019-05-07T07:46:37.464Z,49.88
2019-05-07T07:49:11.391Z,49.40
2019-05-07T07:51:44.514Z,49.18
2019-05-07T07:54:13.091Z,49.48
2019-05-07T07:57:02.134Z,47.90
2019-05-07T07:59:44.856Z,48.68
2019-05-07T08:02:23.094Z,50.10
2019-05-07T08:04:53.434Z,49.58
2019-05-07T08:07:23.613Z,48.95
2019-05-07T08:09:54.838Z,48.10
2019-05-07T08:12:25.080Z,46.35
2019-05-07T08:15:13.026Z,49.42
2019-05-07T08:17:27.315Z,47.62
2019-05-07T08:19:57.820Z,48.20
2019-05-07T08:22:28.012Z,47.10
2019-05-07T08:24:58.230Z,47.20
2019-05-07T08:27:28.407Z,46.65
2019-05-07T08:29:59.024Z,45.65
2019-05-07T08:32:46.521Z,47.08
2019-05-07T08:35:26.915Z,46.33
2019-05-07T08:37:57.194Z,45.60
2019-05-07T08:40:27.686Z,46.02
2019-05-07T08:42:58.709Z,44.53
2019-05-07T08:45:46.744Z,43.78
2019-05-07T08:48:37.437Z,44.08
2019-05-07T08:51:07.629Z,42.43
2019-05-07T08:53:37.893Z,42.25
2019-05-07T08:56:08.202Z,42.65
2019-05-07T08:58:38.375Z,42.50
2019-05-07T09:01:08.604Z,42.27
2019-05-07T09:03:44.738Z,42.23
2019-05-07T09:06:17.306Z,41.20
2019-05-07T09:08:47.486Z,41.18
2019-05-07T09:11:17.680Z,40.98
2019-05-07T09:13:47.872Z,41.98
2019-05-07T09:16:18.118Z,39.33
2019-05-07T09:18:48.462Z,40.20
2019-05-07T09:21:18.702Z,39.67
2019-05-07T09:23:48.933Z,39.25
2019-05-07T09:26:22.460Z,39.45
2019-05-07T09:29:05.080Z,39.48
2019-05-07T09:31:57.946Z,38.80
2019-05-07T09:34:32.561Z,38.63
2019-05-07T09:37:03.876Z,38.60
2019-05-07T09:39:34.120Z,39.92
2019-05-07T09:42:04.365Z,38.00
2019-05-07T09:44:35.625Z,36.60
2019-05-07T09:47:06.042Z,36.83
2019-05-07T09:49:36.225Z,34.95
2019-05-07T09:52:06.429Z,34.13
2019-05-07T09:54:36.721Z,33.33
2019-05-07T09:57:06.973Z,32.33
2019-05-07T09:59:37.245Z,33.18
2019-05-07T10:02:07.509Z,38.73
2019-05-07T10:04:37.682Z,43.38
2019-05-07T10:07:10.041Z,44.98
2019-05-07T10:09:42.688Z,48.33
2019-05-07T10:12:22.431Z,47.95
2019-05-07T10:14:52.621Z,47.38
2019-05-07T10:17:38.279Z,41.60
2019-05-07T10:20:19.309Z,46.23
2019-05-07T10:22:42.856Z,52.08
2019-05-07T10:25:14.239Z,23.55
2019-05-07T10:27:44.718Z,21.37
2019-05-07T10:30:14.998Z,19.32
2019-05-07T10:32:45.310Z,14.23
2019-05-07T10:35:15.556Z,18.95
2019-05-07T10:37:45.810Z,22.82
2019-05-07T10:40:16.182Z,25.30
2019-05-07T10:42:47.037Z,28.35
2019-05-07T10:45:26.532Z,30.15
2019-05-07T10:48:18.388Z,29.32
2019-05-07T10:50:51.702Z,30.85
2019-05-07T10:53:23.059Z,30.17
2019-05-07T10:55:53.293Z,30.57
2019-05-07T10:58:23.600Z,25.50
2019-05-07T11:00:54.692Z,24.43
2019-05-07T11:03:24.964Z,27.75
2019-05-07T11:05:55.203Z,26.27
2019-05-07T11:08:25.915Z,27.27
2019-05-07T11:10:56.168Z,26.97
2019-05-07T11:13:26.511Z,27.32
2019-05-07T11:16:03.186Z,27.00
2019-05-07T11:18:58.401Z,26.17
2019-05-07T11:21:33.260Z,25.75
2019-05-07T11:24:03.884Z,26.37
2019-05-07T11:26:34.212Z,24.10
2019-05-07T11:29:05.172Z,24.02
2019-05-07T11:31:35.498Z,26.00
2019-05-07T11:34:05.728Z,24.05
2019-05-07T11:36:35.996Z,23.00
2019-05-07T11:39:07.108Z,24.65
2019-05-07T11:42:03.897Z,20.62
2019-05-07T11:44:35.541Z,22.75
2019-05-07T11:47:26.742Z,23.20
2019-05-07T11:50:33.824Z,23.02
2019-05-07T11:53:09.049Z,23.18
2019-05-07T11:55:39.284Z,22.48
2019-05-07T11:58:09.811Z,22.45
2019-05-07T12:00:45.432Z,23.62
2019-05-07T12:03:15.718Z,22.48
2019-05-07T12:05:46.021Z,23.18
2019-05-07T12:08:14.691Z,22.07
2019-05-07T12:10:43.450Z,21.50
2019-05-07T12:13:13.715Z,21.62
2019-05-07T12:15:44.272Z,21.33
2019-05-07T12:18:14.528Z,21.93
2019-05-07T12:20:45.323Z,21.23
2019-05-07T12:23:15.574Z,19.85
2019-05-07T12:25:45.922Z,18.55
2019-05-07T12:28:16.391Z,18.02
2019-05-07T12:31:14.363Z,17.73
2019-05-07T12:34:03.495Z,14.50
2019-05-07T12:36:33.748Z,15.93
2019-05-07T12:39:06.794Z,17.77
2019-05-07T12:41:38.638Z,16.45
2019-05-07T12:44:09.068Z,16.40
2019-05-07T12:46:39.518Z,15.48
2019-05-07T12:49:11.787Z,15.72
2019-05-07T12:51:53.486Z,16.23
2019-05-07T12:54:30.195Z,16.17
2019-05-07T12:57:02.454Z,15.70
2019-05-07T12:59:32.386Z,13.68
2019-05-07T13:02:36.442Z,15.45
2019-05-07T13:04:52.438Z,18.07
2019-05-07T13:07:41.805Z,19.48
2019-05-07T13:10:13.059Z,18.60
2019-05-07T13:12:43.329Z,18.55
2019-05-07T13:15:23.905Z,18.75
2019-05-07T13:17:45.482Z,18.92
2019-05-07T13:20:17.155Z,14.47
2019-05-07T13:22:49.748Z,14.75
2019-05-07T13:25:21.602Z,13.48
2019-05-07T13:27:53.121Z,13.58
2019-05-07T13:30:23.864Z,13.70
2019-05-07T13:32:54.137Z,13.03
2019-05-07T13:35:25.034Z,11.55
2019-05-07T13:38:14.675Z,11.00
2019-05-07T13:41:02.174Z,9.60
2019-05-07T13:43:37.561Z,9.53
2019-05-07T13:46:13.421Z,9.08
2019-05-07T13:48:45.694Z,8.28
2019-05-07T13:51:15.815Z,7.53
2019-05-07T13:53:46.004Z,8.35
2019-05-07T13:56:16.178Z,7.03
2019-05-07T13:58:46.396Z,7.17
2019-05-07T14:01:32.910Z,14.45
2019-05-07T14:04:07.294Z,11.05
2019-05-07T14:06:38.853Z,10.15
2019-05-07T14:09:12.251Z,10.45
2019-05-07T14:11:42.513Z,8.93
2019-05-07T14:14:13.358Z,7.87
2019-05-07T14:16:45.100Z,7.45
2019-05-07T14:19:15.600Z,10.78
2019-05-07T14:21:46.062Z,13.08
2019-05-07T14:24:16.327Z,11.28
2019-05-07T14:26:46.729Z,10.63
2019-05-07T14:29:17.408Z,10.00
2019-05-07T14:31:52.295Z,10.20
2019-05-07T14:34:27.401Z,10.43
2019-05-07T14:37:04.719Z,10.43
2019-05-07T14:39:37.113Z,10.13
2019-05-07T14:42:09.861Z,10.35
2019-05-07T14:44:50.158Z,10.48
2019-05-07T14:47:22.265Z,10.25
2019-05-07T14:49:53.154Z,10.10
2019-05-07T14:52:32.287Z,9.60
2019-05-07T14:54:56.175Z,9.45
2019-05-07T14:57:26.926Z,9.00
2019-05-07T14:59:58.009Z,8.60
2019-05-07T15:02:28.444Z,31.57
2019-05-07T15:04:58.904Z,23.92
2019-05-07T15:07:29.471Z,20.85
2019-05-07T15:10:02.204Z,25.95
2019-05-07T15:12:33.167Z,27.13
2019-05-07T15:15:04.291Z,25.72
2019-05-07T15:17:44.279Z,27.17
2019-05-07T15:20:14.933Z,25.40
2019-05-07T15:22:54.150Z,25.20
2019-05-07T15:25:24.544Z,24.95
2019-05-07T15:27:55.092Z,25.00
2019-05-07T15:30:27.268Z,24.37
2019-05-07T15:32:57.881Z,70.78
2019-05-07T15:35:28.442Z,57.95
2019-05-07T15:37:59.052Z,50.65
2019-05-07T15:40:29.484Z,49.88
2019-05-07T15:43:07.838Z,50.40
2019-05-07T15:45:42.088Z,46.30
2019-05-07T15:48:22.046Z,47.98
2019-05-07T15:51:02.337Z,48.55
2019-05-07T15:53:52.233Z,45.52
2019-05-07T15:56:32.395Z,44.83
2019-05-07T15:59:13.738Z,43.45
2019-05-07T16:01:55.528Z,43.28
2019-05-07T16:04:34.805Z,42.08
2019-05-07T16:07:14.093Z,43.02
2019-05-07T16:09:54.577Z,37.10
2019-05-07T16:12:34.793Z,31.87
2019-05-07T16:15:23.824Z,30.20
2019-05-07T16:18:08.024Z,29.92
2019-05-07T16:20:47.737Z,29.90
2019-05-07T16:23:23.435Z,30.05
2019-05-07T16:26:02.410Z,30.08
2019-05-07T16:28:38.894Z,29.40
2019-05-07T16:31:15.857Z,28.75
2019-05-07T16:33:55.770Z,28.35
2019-05-07T16:36:41.900Z,26.25
2019-05-07T16:39:18.765Z,28.12
2019-05-07T16:41:56.838Z,39.73
2019-05-07T16:44:37.807Z,49.73
2019-05-07T16:47:18.859Z,48.65
2019-05-07T16:49:58.475Z,46.60
2019-05-07T16:52:29.803Z,44.40
2019-05-07T16:55:00.027Z,43.48
2019-05-07T16:57:51.892Z,42.85
2019-05-07T17:00:31.874Z,42.93
2019-05-07T17:03:05.390Z,40.43
2019-05-07T17:05:35.576Z,41.33
2019-05-07T17:08:42.212Z,41.00
2019-05-07T17:11:12.221Z,39.45
2019-05-07T17:13:42.685Z,38.80
2019-05-07T17:16:12.919Z,39.88
2019-05-07T17:18:43.227Z,39.85
2019-05-07T17:21:13.426Z,37.08
2019-05-07T17:23:44.775Z,35.45
2019-05-07T17:26:15.409Z,37.13
2019-05-07T17:28:45.669Z,35.98
2019-05-07T17:31:16.001Z,36.40
2019-05-07T17:33:46.248Z,35.65
2019-05-07T17:36:16.781Z,35.95
2019-05-07T17:38:47.079Z,34.80
2019-05-07T17:41:22.463Z,35.20
2019-05-07T17:43:52.077Z,34.98
2019-05-07T17:46:22.244Z,35.30
2019-05-07T17:48:52.813Z,34.25
2019-05-07T17:51:42.392Z,33.20
2019-05-07T17:54:13.464Z,31.60
2019-05-07T17:56:43.912Z,30.62
2019-05-07T17:59:14.256Z,30.85
2019-05-07T18:02:04.976Z,29.57
2019-05-07T18:04:48.475Z,29.90
2019-05-07T18:07:12.015Z,29.07
2019-05-07T18:09:42.247Z,33.73
2019-05-07T18:12:12.078Z,31.77
2019-05-07T18:14:42.586Z,29.75
2019-05-07T18:17:33.592Z,31.23
2019-05-07T18:20:04.036Z,28.90
2019-05-07T18:22:34.360Z,29.77
2019-05-07T18:25:05.019Z,28.20
2019-05-07T18:27:35.344Z,27.37
2019-05-07T18:30:06.593Z,26.97
2019-05-07T18:32:43.735Z,27.77
2019-05-07T18:35:13.995Z,25.70
2019-05-07T18:37:53.836Z,25.08
2019-05-07T18:40:24.099Z,23.77
2019-05-07T18:42:54.485Z,25.52
2019-05-07T18:45:25.010Z,24.37
2019-05-07T18:47:55.307Z,23.07
2019-05-07T18:50:25.552Z,22.52
2019-05-07T18:52:55.855Z,21.70
2019-05-07T18:55:26.751Z,20.97
2019-05-07T18:57:57.075Z,21.07
2019-05-07T19:00:31.914Z,22.70
2019-05-07T19:03:03.381Z,24.40
2019-05-07T19:05:33.907Z,25.57
2019-05-07T19:08:08.292Z,26.60
2019-05-07T19:10:36.849Z,27.35
2019-05-07T19:13:07.109Z,28.32
2019-05-07T19:15:38.716Z,29.82
2019-05-07T19:18:09.013Z,28.20
2019-05-07T19:20:39.307Z,28.57
2019-05-07T19:23:09.531Z,30.20
2019-05-07T19:25:41.930Z,29.50
2019-05-07T19:28:15.015Z,31.33
2019-05-07T19:30:46.515Z,31.12
2019-05-07T19:33:18.160Z,32.08
2019-05-07T19:35:48.523Z,32.90
2019-05-07T19:38:19.141Z,39.98
2019-05-07T19:40:52.652Z,51.92
2019-05-07T19:43:22.357Z,60.63
2019-05-07T19:45:52.715Z,55.67
2019-05-07T19:48:23.273Z,62.10
2019-05-07T19:50:56.539Z,63.10
2019-05-07T19:53:26.843Z,65.00
2019-05-07T19:56:06.213Z,63.10
2019-05-07T19:58:36.595Z,68.02
2019-05-07T20:01:12.121Z,71.82
2019-05-07T20:03:43.577Z,82.05
2019-05-07T20:06:16.695Z,81.50
2019-05-07T20:08:47.295Z,83.00
2019-05-07T20:11:42.506Z,81.85
2019-05-07T20:14:13.831Z,80.95
2019-05-07T20:16:46.906Z,80.15
2019-05-07T20:19:17.139Z,78.12
2019-05-07T20:21:47.492Z,79.32
2019-05-07T20:24:17.975Z,98.27
2019-05-07T20:26:48.259Z,98.87
2019-05-07T20:29:18.576Z,106.90
2019-05-07T20:31:48.967Z,115.52
2019-05-07T20:34:19.236Z,112.17
2019-05-07T20:36:51.775Z,110.52
2019-05-07T20:39:23.314Z,125.60
2019-05-07T20:41:53.653Z,129.72
2019-05-07T20:44:23.977Z,136.12
2019-05-07T20:46:54.296Z,137.95
2019-05-07T20:49:24.969Z,140.80
2019-05-07T20:51:55.241Z,139.75
2019-05-07T20:54:32.665Z,141.85
2019-05-07T20:57:10.188Z,177.93
2019-05-07T20:59:40.580Z,176.40
2019-05-07T21:02:11.846Z,180.07
2019-05-07T21:04:42.595Z,174.85
2019-05-07T21:07:12.937Z,178.80
2019-05-07T21:09:45.140Z,172.20
2019-05-07T21:12:15.603Z,170.40
2019-05-07T21:14:46.243Z,166.32
2019-05-07T21:17:16.723Z,181.30
2019-05-07T21:19:46.919Z,185.52
2019-05-07T21:22:17.919Z,192.37
2019-05-07T21:24:49.537Z,198.10
2019-05-07T21:27:19.861Z,196.50
2019-05-07T21:29:50.161Z,191.77
2019-05-07T21:32:22.908Z,195.32
2019-05-07T21:34:55.422Z,194.37
2019-05-07T21:37:25.842Z,182.43
2019-05-07T21:39:56.100Z,181.40
2019-05-07T21:42:26.326Z,192.82
2019-05-07T21:44:56.674Z,184.80
2019-05-07T21:47:26.878Z,192.20
2019-05-07T21:49:57.067Z,193.35
2019-05-07T21:52:29.015Z,188.80
2019-05-07T21:55:17.756Z,188.00
2019-05-07T21:58:12.926Z,188.32
2019-05-07T22:01:12.664Z,185.90
2019-05-07T22:03:47.339Z,179.40
2019-05-07T22:06:17.650Z,183.35
2019-05-07T22:08:47.948Z,176.75
2019-05-07T22:11:18.253Z,178.42
2019-05-07T22:13:48.566Z,176.12
2019-05-07T22:16:18.963Z,170.87
2019-05-07T22:18:49.265Z,163.57
2019-05-07T22:21:19.574Z,166.05
2019-05-07T22:23:52.057Z,166.97
2019-05-07T22:26:25.535Z,163.18
2019-05-07T22:28:54.163Z,166.15
2019-05-07T22:31:46.977Z,160.72
2019-05-07T22:35:02.800Z,160.50
2019-05-07T22:37:34.334Z,149.82
2019-05-07T22:40:12.338Z,152.97
2019-05-07T22:42:44.197Z,151.05
2019-05-07T22:45:14.499Z,148.72
2019-05-07T22:47:44.750Z,147.80
2019-05-07T22:50:16.350Z,148.90
2019-05-07T22:52:46.623Z,146.37
2019-05-07T22:55:16.917Z,147.02
2019-05-07T22:57:56.639Z,145.00
2019-05-07T23:00:49.925Z,141.37
2019-05-07T23:03:20.187Z,140.70
2019-05-07T23:05:52.319Z,141.73
2019-05-07T23:08:22.574Z,140.37
2019-05-07T23:10:52.803Z,139.90
2019-05-07T23:13:23.043Z,139.35
2019-05-07T23:15:54.647Z,138.37
2019-05-07T23:18:24.802Z,134.63
2019-05-07T23:20:55.140Z,137.88
2019-05-07T23:23:25.347Z,136.60
2019-05-07T23:25:55.579Z,132.18
2019-05-07T23:28:25.765Z,131.35
2019-05-07T23:30:56.213Z,134.40
2019-05-07T23:33:26.401Z,134.22
2019-05-07T23:36:22.694Z,129.90
2019-05-07T23:39:29.024Z,127.82
2019-05-07T23:42:12.692Z,128.72
2019-05-07T23:44:43.097Z,127.47
2019-05-07T23:47:13.379Z,124.78
2019-05-07T23:49:43.557Z,124.60
2019-05-07T23:52:13.861Z,123.53
2019-05-07T23:54:44.103Z,123.87
2019-05-07T23:57:15.361Z,126.05
2019-05-07T23:59:45.708Z,123.97
